Airfield :
LOGIN :

Register | Disclaimer

   EN    FR    IT 

 










Legend :    VFR   Marginal VFR   IFR   Intensive IFR   Very Intensive IFR
Visi :
Ceiling :
>= 8 km
>= 3000ft
5 to 8 km
1000 to 3000 ft
1500m to 5 km
500 to 1000 ft
800 to 1500m
200 to 500 ft
< 800m
< 200 ft
Symbols :   Thunderstorms  Fog  Heavy snow  Heavy precipitations  Wind > 20 kt
SIGMETs :     Misc.  Thunderstorms  Icing  Turbulence  Mountain Waves  Volcanic Ashes






- Airport Elevation : 20 ft


EBFN - Koksijde

CURRENT METAR :
  • 031355Z 36008KT 9999 FEW040 18/10 Q1013 BLU BLU TEMPO WHT

EXPIRED METARs :
  • 031325Z 03007KT 9999 FEW040 18/10 Q1013 BLU BLU TEMPO WHT
  • 031255Z 02005KT 9999 FEW040 SCT100 18/10 Q1013 BLU BLU TEMPO WHT
  • 031225Z 36006KT 9999 FEW040 SCT100 18/10 Q1013 BLU BLU TEMPO WHT
  • 031155Z 01006KT 9999 FEW030 BKN090 18/10 Q1013 BLU BLU TEMPO WHT
  • 031125Z 30003KT 9999 FEW030 SCT070 BKN090 17/10 Q1014 BLU BLU TEMPO WHT

TAF TAF EBFN
Valid from the 03 at 13:00 until the 03 at 22:00 UTC


031141Z 0313/0322 01006KT 9999 FEW030 BKN080
PROB40
TEMPO 0313/0319 6000 -SHRA SCT024



MET'MAP, your aeronautical weather chart ! - Copyright ORBIFLY December 2007 - Disclaimer

ORBIFLY MET'MAP TEAM :

Programming & Development : Alexandra Zaïnal
Concept & original design : Baudouin d'Aumeries
Assistance for programming : Marc-Olivier Méhu
Technical & hardware support : Manuel Goepfert

Contact : metmap@orbifly.com




SOURCES & CREDITS :

   NOAA